createdAt,value
2018-12-27T00:01:27.664Z,77.00
2018-12-27T00:06:46.476Z,76.68
2018-12-27T00:12:05.114Z,77.66
2018-12-27T00:17:23.825Z,77.89
2018-12-27T00:22:42.761Z,78.25
2018-12-27T00:28:01.767Z,79.11
2018-12-27T00:33:20.659Z,79.50
2018-12-27T00:38:39.436Z,78.40
2018-12-27T00:43:58.198Z,78.21
2018-12-27T00:49:16.858Z,78.28
2018-12-27T00:54:35.681Z,79.23
2018-12-27T00:59:54.356Z,78.11
2018-12-27T01:05:13.017Z,78.69
2018-12-27T01:10:32.180Z,77.78
2018-12-27T01:15:50.777Z,75.49
2018-12-27T01:21:09.485Z,74.74
2018-12-27T01:26:28.148Z,76.27
2018-12-27T01:31:50.555Z,76.59
2018-12-27T01:37:07.262Z,75.54
2018-12-27T01:42:25.881Z,74.98
2018-12-27T01:47:44.602Z,75.74
2018-12-27T01:53:03.455Z,75.71
2018-12-27T01:58:22.151Z,75.89
2018-12-27T02:03:40.793Z,76.89
2018-12-27T02:08:59.441Z,75.95
2018-12-27T02:14:18.152Z,76.74
2018-12-27T02:19:36.750Z,76.90
2018-12-27T02:24:55.651Z,77.25
2018-12-27T02:30:14.286Z,76.41
2018-12-27T02:35:33.042Z,76.76
2018-12-27T02:40:51.739Z,75.78
2018-12-27T02:46:10.398Z,76.83
2018-12-27T02:51:28.928Z,76.72
2018-12-27T02:56:47.626Z,76.01
2018-12-27T03:02:06.249Z,75.96
2018-12-27T03:07:24.875Z,75.84
2018-12-27T03:12:43.815Z,75.84
2018-12-27T03:18:02.486Z,75.86
2018-12-27T03:23:21.164Z,76.48
2018-12-27T03:28:39.930Z,76.52
2018-12-27T03:33:58.556Z,76.47
2018-12-27T03:39:17.510Z,76.33
2018-12-27T03:44:36.296Z,76.35
2018-12-27T03:49:54.980Z,76.40
2018-12-27T03:55:13.914Z,76.77
2018-12-27T04:00:32.611Z,77.73
2018-12-27T04:05:51.700Z,76.71
2018-12-27T04:11:10.802Z,76.72
2018-12-27T04:16:29.442Z,77.19
2018-12-27T04:21:48.123Z,77.18
2018-12-27T04:27:06.662Z,77.39
2018-12-27T04:32:25.543Z,76.22
2018-12-27T04:37:44.159Z,76.75
2018-12-27T04:43:02.988Z,76.13
2018-12-27T04:48:21.616Z,77.06
2018-12-27T04:53:40.625Z,77.43
2018-12-27T04:58:59.298Z,77.59
2018-12-27T05:04:18.550Z,77.72
2018-12-27T05:09:37.650Z,78.20
2018-12-27T05:14:56.243Z,78.55
2018-12-27T05:20:14.815Z,78.81
2018-12-27T05:25:33.468Z,78.60
2018-12-27T05:30:52.091Z,79.29
2018-12-27T05:36:10.943Z,78.98
2018-12-27T05:41:29.601Z,79.37
2018-12-27T05:46:48.223Z,78.42
2018-12-27T05:52:06.724Z,79.02
2018-12-27T05:57:25.368Z,78.93
2018-12-27T06:02:44.262Z,78.24
2018-12-27T06:08:03.222Z,79.11
2018-12-27T06:13:22.115Z,79.34
2018-12-27T06:18:40.691Z,79.54
2018-12-27T06:23:59.397Z,79.62
2018-12-27T06:29:18.095Z,79.78
2018-12-27T06:34:41.349Z,79.57
2018-12-27T06:39:57.424Z,79.17
2018-12-27T06:45:16.303Z,79.51
2018-12-27T06:50:34.880Z,79.28
2018-12-27T06:55:53.527Z,79.05
2018-12-27T07:01:12.227Z,79.34
2018-12-27T07:06:30.967Z,79.26
2018-12-27T07:11:49.547Z,78.56
2018-12-27T07:17:08.204Z,78.72
2018-12-27T07:22:26.703Z,78.77
2018-12-27T07:27:45.345Z,79.50
2018-12-27T07:33:04.272Z,79.25
2018-12-27T07:38:22.805Z,79.14
2018-12-27T07:43:41.444Z,79.10
2018-12-27T07:49:00.086Z,79.59
2018-12-27T07:54:18.755Z,79.26
2018-12-27T07:59:37.400Z,79.27
2018-12-27T08:04:56.020Z,78.21
2018-12-27T08:10:14.665Z,78.01
2018-12-27T08:15:33.211Z,77.31
2018-12-27T08:20:51.783Z,77.14
2018-12-27T08:26:10.348Z,76.29
2018-12-27T08:31:28.950Z,76.75
2018-12-27T08:36:47.617Z,77.45
2018-12-27T08:42:06.214Z,75.92
2018-12-27T08:47:25.682Z,75.97
2018-12-27T08:52:44.775Z,74.25
2018-12-27T08:58:03.441Z,72.47
2018-12-27T09:03:21.984Z,74.49
2018-12-27T09:08:40.725Z,73.98
2018-12-27T09:13:59.396Z,75.42
2018-12-27T09:19:18.095Z,76.66
2018-12-27T09:24:38.382Z,76.67
2018-12-27T09:29:56.949Z,76.48
2018-12-27T09:35:15.670Z,77.81
2018-12-27T09:40:34.293Z,75.52
2018-12-27T09:45:52.989Z,74.65
2018-12-27T09:51:11.709Z,72.17
2018-12-27T09:56:30.261Z,75.08
2018-12-27T10:01:49.019Z,73.04
2018-12-27T10:07:07.731Z,72.54
2018-12-27T10:12:27.648Z,70.15
2018-12-27T10:17:46.301Z,72.63
2018-12-27T10:23:05.060Z,71.36
2018-12-27T10:28:23.872Z,63.28
2018-12-27T10:33:42.578Z,63.25
2018-12-27T10:39:01.225Z,63.85
2018-12-27T10:44:19.771Z,62.08
2018-12-27T10:49:38.716Z,63.72
2018-12-27T10:54:57.537Z,62.41
2018-12-27T11:00:16.314Z,61.81
2018-12-27T11:05:34.957Z,62.57
2018-12-27T11:10:53.599Z,59.94
2018-12-27T11:16:12.241Z,59.44
2018-12-27T11:21:32.476Z,59.10
2018-12-27T11:26:51.293Z,60.19
2018-12-27T11:32:15.489Z,62.91
2018-12-27T11:37:34.147Z,62.28
2018-12-27T11:42:52.975Z,59.75
2018-12-27T11:48:11.611Z,61.33
2018-12-27T11:53:30.203Z,54.95
2018-12-27T11:58:50.100Z,55.74
2018-12-27T12:04:08.824Z,59.11
2018-12-27T12:09:27.569Z,56.74
2018-12-27T12:14:46.217Z,53.78
2018-12-27T12:20:07.431Z,56.28
2018-12-27T12:25:26.134Z,56.23
2018-12-27T12:30:44.794Z,54.42
2018-12-27T12:36:10.378Z,56.51
2018-12-27T12:41:38.606Z,55.51
2018-12-27T12:46:45.169Z,51.54
2018-12-27T12:52:03.824Z,53.27
2018-12-27T12:57:22.589Z,55.07
2018-12-27T13:02:41.126Z,54.92
2018-12-27T13:07:59.908Z,54.70
2018-12-27T13:13:18.363Z,55.57
2018-12-27T13:18:36.896Z,54.55
2018-12-27T13:23:55.432Z,56.39
2018-12-27T13:29:13.953Z,56.16
2018-12-27T13:34:32.422Z,56.36
2018-12-27T13:39:50.889Z,62.87
2018-12-27T13:45:09.345Z,61.33
2018-12-27T13:50:27.883Z,57.55
2018-12-27T13:55:46.346Z,57.71
2018-12-27T14:01:18.527Z,52.88
2018-12-27T14:17:40.185Z,62.06
2018-12-27T14:22:58.717Z,62.28
2018-12-27T14:28:17.173Z,62.04
2018-12-27T14:33:35.631Z,63.24
2018-12-27T14:38:54.092Z,61.30
2018-12-27T14:44:12.552Z,65.56
2018-12-27T14:49:31.004Z,63.81
2018-12-27T14:54:49.543Z,63.09
2018-12-27T15:00:47.894Z,65.57
2018-12-27T15:06:06.361Z,66.78
2018-12-27T15:11:25.238Z,67.89
2018-12-27T15:16:45.036Z,67.87
2018-12-27T15:22:03.974Z,69.29
2018-12-27T15:27:22.456Z,69.38
2018-12-27T15:32:40.910Z,68.92
2018-12-27T15:37:59.376Z,70.68
2018-12-27T15:43:18.256Z,69.92
2018-12-27T15:48:36.711Z,71.11
2018-12-27T15:53:55.169Z,72.81
2018-12-27T15:59:13.641Z,73.61
2018-12-27T16:04:32.109Z,73.99
2018-12-27T16:09:50.574Z,74.78
2018-12-27T16:15:09.115Z,73.64
2018-12-27T16:20:27.646Z,73.64
2018-12-27T16:25:46.104Z,74.60
2018-12-27T16:31:04.699Z,74.18
2018-12-27T16:41:55.736Z,74.27
2018-12-27T16:47:14.274Z,75.44
2018-12-27T16:52:32.989Z,75.64
2018-12-27T16:57:51.795Z,75.94
2018-12-27T17:03:10.330Z,76.38
2018-12-27T17:08:28.796Z,77.40
2018-12-27T17:13:47.322Z,78.89
2018-12-27T17:19:05.857Z,79.71
2018-12-27T17:24:24.319Z,79.78
2018-12-27T17:29:42.845Z,80.54
2018-12-27T17:35:01.307Z,80.61
2018-12-27T17:40:19.769Z,80.17
2018-12-27T17:45:38.226Z,81.67
2018-12-27T17:50:56.774Z,80.17
2018-12-27T17:56:15.248Z,81.03
2018-12-27T18:01:33.718Z,81.01
2018-12-27T18:06:52.183Z,81.84
2018-12-27T18:12:10.665Z,82.00
2018-12-27T18:17:29.518Z,82.30
2018-12-27T18:22:47.984Z,82.77
2018-12-27T18:28:06.458Z,82.56
2018-12-27T18:33:24.922Z,82.18
2018-12-27T18:49:46.554Z,82.45
2018-12-27T18:55:45.608Z,82.51
2018-12-27T19:01:04.222Z,82.35
2018-12-27T19:06:22.886Z,82.25
2018-12-27T19:12:19.933Z,82.56
2018-12-27T19:18:18.325Z,82.40
2018-12-27T19:23:36.784Z,82.40
2018-12-27T19:28:55.246Z,82.58
2018-12-27T19:34:13.716Z,82.79
2018-12-27T19:39:32.197Z,83.29
2018-12-27T19:50:23.311Z,83.94
2018-12-27T19:55:41.913Z,84.22
2018-12-27T20:06:30.835Z,84.69
2018-12-27T20:11:49.295Z,84.62
2018-12-27T20:17:08.030Z,83.88
2018-12-27T20:22:26.498Z,84.29
2018-12-27T20:27:45.039Z,85.05
2018-12-27T20:38:36.019Z,85.22
2018-12-27T20:43:54.483Z,85.31
2018-12-27T20:49:12.957Z,85.56
2018-12-27T20:54:31.418Z,86.46
2018-12-27T20:59:49.877Z,86.48
2018-12-27T21:05:08.432Z,86.01
2018-12-27T21:10:26.909Z,86.39
2018-12-27T21:15:45.458Z,86.56
2018-12-27T21:21:03.937Z,86.74
2018-12-27T21:26:22.464Z,87.07
2018-12-27T21:31:40.931Z,87.33
2018-12-27T21:36:59.469Z,87.41
2018-12-27T21:42:17.935Z,87.86
2018-12-27T21:47:36.408Z,87.67
2018-12-27T21:52:54.884Z,87.83
2018-12-27T21:58:13.346Z,87.88
2018-12-27T22:03:31.815Z,88.05
2018-12-27T22:08:50.280Z,87.76
2018-12-27T22:14:08.746Z,87.56
2018-12-27T22:19:27.215Z,87.27
2018-12-27T22:24:45.674Z,87.44
2018-12-27T22:30:44.064Z,87.16
2018-12-27T22:36:02.791Z,87.66
2018-12-27T22:41:21.628Z,87.65
2018-12-27T22:46:40.099Z,87.79
2018-12-27T22:51:58.558Z,87.88
2018-12-27T23:02:47.548Z,88.27
2018-12-27T23:08:06.155Z,88.23
2018-12-27T23:13:24.620Z,87.84
2018-12-27T23:18:43.153Z,88.44
2018-12-27T23:24:20.979Z,88.43
2018-12-27T23:29:39.514Z,88.40
2018-12-27T23:34:57.980Z,88.48
2018-12-27T23:40:16.521Z,88.27
2018-12-27T23:45:35.022Z,88.31
2018-12-27T23:50:53.559Z,88.11
2018-12-27T23:56:12.158Z,88.54
